Flight Track Log - Related Links

Times and Time Zones

All times are in EST time to prevent confusion due to time zone crossing. See the CCA9573 flight status page for this flight to view local times or setup timezone preferences in your user account.

Time Position Orientation Groundspeed Altitude Reporting Facility
EST Latitude Longitude Course Direction KTS MPH feet Rate Location/Type
Wed 09:55:00 PM 40.1994 116.8657 61° Northeast  Level Estimated
Wed 09:56:00 PM 40.2291 116.9361 61° Northeast  Level Estimated
Wed 09:57:00 PM 40.2587 117.0066 61° Northeast  Level Estimated
Wed 09:58:00 PM 40.2883 117.0772 61° Northeast  Level Estimated
Wed 09:59:00 PM 40.3179 117.1478 61° Northeast  Level Estimated
Wed 10:00:00 PM 40.3475 117.2185 61° Northeast  Level Estimated
Wed 10:01:00 PM 40.3770 117.2892 61° Northeast  Level Estimated
Wed 10:02:00 PM 40.4064 117.3600 61° Northeast  Level Estimated
Wed 10:03:00 PM 40.4358 117.4309 61° Northeast  Level Estimated
Wed 10:04:00 PM 40.4652 117.5018 61° Northeast  Level Estimated
Wed 10:05:00 PM 40.4945 117.5728 61° Northeast  Level Estimated
Wed 10:06:00 PM 40.5238 117.6439 62° Northeast  Level Estimated
Wed 10:07:00 PM 40.5530 117.7150 62° Northeast  Level Estimated
Wed 10:08:00 PM 40.5822 117.7862 62° Northeast  Level Estimated
Wed 10:09:00 PM 40.6114 117.8574 62° Northeast  Level Estimated
Wed 10:10:00 PM 40.6404 117.9287 62° Northeast  Level Estimated
Wed 10:11:00 PM 40.6695 118.0001 62° Northeast  Level Estimated
Wed 10:12:00 PM 40.6985 118.0715 62° Northeast  Level Estimated
Wed 10:13:00 PM 40.7275 118.1430 62° Northeast  Level Estimated
Wed 10:14:00 PM 40.7564 118.2145 62° Northeast  Level Estimated
Wed 10:15:00 PM 40.7853 118.2861 62° Northeast  Level Estimated
Wed 10:16:00 PM 40.8141 118.3578 62° Northeast  Level Estimated
Wed 10:17:00 PM 40.8429 118.4296 62° Northeast  Level Estimated
Wed 10:18:00 PM 40.8717 118.5014 62° Northeast  Level Estimated
Wed 10:19:00 PM 40.9004 118.5732 62° Northeast  Level Estimated
Wed 10:20:00 PM 40.9290 118.6451 62° Northeast  Level Estimated
Wed 10:21:00 PM 40.9576 118.7171 62° Northeast  Level Estimated
Wed 10:22:00 PM 40.9862 118.7892 62° Northeast  Level Estimated
Wed 10:23:00 PM 41.0147 118.8613 62° Northeast  Level Estimated
Wed 10:24:00 PM 41.0432 118.9335 62° Northeast  Level Estimated
Wed 10:25:00 PM 41.0717 119.0057 62° Northeast  Level Estimated
Wed 10:26:00 PM 41.1000 119.0780 62° Northeast  Level Estimated
Wed 10:27:00 PM 41.1284 119.1504 63° Northeast  Level Estimated
Wed 10:28:00 PM 41.1567 119.2228 63° Northeast  Level Estimated
Wed 10:29:00 PM 41.1849 119.2953 63° Northeast  Level Estimated
Wed 10:30:00 PM 41.2131 119.3678 63° Northeast  Level Estimated
Wed 10:31:00 PM 41.2413 119.4404 63° Northeast  Level Estimated
Wed 10:32:00 PM 41.2694 119.5131 63° Northeast  Level Estimated
Wed 10:33:00 PM 41.2975 119.5858 63° Northeast  Level Estimated
Wed 10:34:00 PM 41.3255 119.6586 63° Northeast  Level Estimated
Wed 10:35:00 PM 41.3535 119.7315 63° Northeast  Level Estimated
Wed 10:36:00 PM 41.3814 119.8044 63° Northeast  Level Estimated
Wed 10:37:00 PM 41.4093 119.8774 63° Northeast  Level Estimated
Wed 10:38:00 PM 41.4371 119.9505 63° Northeast  Level Estimated
Wed 10:39:00 PM 41.4649 120.0236 63° Northeast  Level Estimated
Wed 10:40:00 PM 41.4927 120.0967 63° Northeast  Level Estimated
Wed 10:41:00 PM 41.5204 120.1700 63° Northeast  Level Estimated
Wed 10:42:00 PM 41.5480 120.2433 63° Northeast  Level Estimated
Wed 10:43:00 PM 41.5757 120.3167 63° Northeast  Level Estimated
Wed 10:44:00 PM 41.6032 120.3901 63° Northeast  Level Estimated
Wed 10:45:00 PM 41.6307 120.4636 63° Northeast  Level Estimated
Wed 10:46:00 PM 41.6582 120.5371 63° Northeast  Level Estimated
Wed 10:47:00 PM 41.6856 120.6107 63° Northeast  Level Estimated
Wed 10:48:00 PM 41.7130 120.6844 64° Northeast  Level Estimated
Wed 10:49:00 PM 41.7403 120.7581 64° Northeast  Level Estimated
Wed 10:50:00 PM 41.7676 120.8319 64° Northeast  Level Estimated
Wed 10:51:00 PM 41.7948 120.9058 64° Northeast  Level Estimated
Wed 10:52:00 PM 41.8220 120.9798 64° Northeast  Level Estimated
Wed 10:53:00 PM 41.8492 121.0537 64° Northeast  Level Estimated
Wed 10:54:00 PM 41.8763 121.1278 64° Northeast  Level Estimated
Wed 10:55:00 PM 41.9033 121.2019 64° Northeast  Level Estimated
Wed 10:56:00 PM 41.9303 121.2761 64° Northeast  Level Estimated
Wed 10:57:00 PM 41.9572 121.3503 64° Northeast  Level Estimated
Wed 10:58:00 PM 41.9841 121.4246 64° Northeast  Level Estimated
Wed 10:59:00 PM 42.0110 121.4990 64° Northeast  Level Estimated
Wed 11:00:00 PM 42.0378 121.5734 64° Northeast  Level Estimated
Wed 11:01:00 PM 42.0646 121.6479 64° Northeast  Level Estimated
Wed 11:02:00 PM 42.0913 121.7225 64° Northeast  Level Estimated
Wed 11:03:00 PM 42.1179 121.7971 64° Northeast  Level Estimated
Wed 11:04:00 PM 42.1445 121.8718 64° Northeast  Level Estimated
Wed 11:05:00 PM 42.1711 121.9465 64° Northeast  Level Estimated
Wed 11:06:00 PM 42.1976 122.0213 64° Northeast  Level Estimated
Wed 11:07:00 PM 42.2241 122.0962 64° Northeast  Level Estimated
Wed 11:08:00 PM 42.2505 122.1711 65° Northeast  Level Estimated
Wed 11:09:00 PM 42.2769 122.2461 65° Northeast  Level Estimated
Wed 11:10:00 PM 42.3032 122.3212 65° Northeast  Level Estimated
Wed 11:11:00 PM 42.3294 122.3963 65° Northeast  Level Estimated
Wed 11:12:00 PM 42.3557 122.4715 65° Northeast  Level Estimated
Wed 11:13:00 PM 42.3818 122.5467 65° Northeast  Level Estimated
Wed 11:14:00 PM 42.4080 122.6220 65° Northeast  Level Estimated
Wed 11:15:00 PM 42.4340 122.6974 65° Northeast  Level Estimated
Wed 11:16:00 PM 42.4600 122.7728 65° Northeast  Level Estimated
Wed 11:17:00 PM 42.4860 122.8483 65° Northeast  Level Estimated
Wed 11:18:00 PM 42.5119 122.9239 65° Northeast  Level Estimated
Wed 11:19:00 PM 42.5378 122.9995 65° Northeast  Level Estimated
Wed 11:20:00 PM 42.5636 123.0752 65° Northeast  Level Estimated
Wed 11:21:00 PM 42.5894 123.1509 65° Northeast  Level Estimated
Wed 11:22:00 PM 42.6151 123.2268 65° Northeast  Level Estimated
Wed 11:23:00 PM 42.6408 123.3026 65° Northeast  Level Estimated
Wed 11:24:00 PM 42.6664 123.3786 65° Northeast  Level Estimated
Wed 11:25:00 PM 42.6920 123.4546 65° Northeast  Level Estimated
Wed 11:26:00 PM 42.7175 123.5306 65° Northeast  Level Estimated
Wed 11:27:00 PM 42.7430 123.6067 65° Northeast  Level Estimated
Wed 11:28:00 PM 42.7684 123.6829 66° East  Level Estimated
Wed 11:29:00 PM 42.7938 123.7592 66° East  Level Estimated
Wed 11:30:00 PM 42.8191 123.8355 66° East  Level Estimated
Wed 11:31:00 PM 42.8443 123.9118 66° East  Level Estimated
Wed 11:32:00 PM 42.8696 123.9883 66° East  Level Estimated
Wed 11:33:00 PM 42.8947 124.0648 66° East  Level Estimated
Wed 11:34:00 PM 42.9199 124.1413 66° East  Level Estimated
Wed 11:35:00 PM 42.9449 124.2180 66° East  Level Estimated
Wed 11:36:00 PM 42.9700 124.2946 66° East  Level Estimated
Wed 11:37:00 PM 42.9949 124.3714 66° East  Level Estimated
Wed 11:38:00 PM 43.0198 124.4482 66° East  Level Estimated
Wed 11:39:00 PM 43.0447 124.5251 66° East  Level Estimated
Wed 11:40:00 PM 43.0695 124.6020 66° East  Level Estimated
Wed 11:41:00 PM 43.0943 124.6790 66° East  Level Estimated
Wed 11:42:00 PM 43.1190 124.7561 66° East  Level Estimated
Wed 11:43:00 PM 43.1436 124.8332 66° East  Level Estimated
Wed 11:44:00 PM 43.1682 124.9104 66° East  Level Estimated
Wed 11:45:00 PM 43.1928 124.9876 66° East  Level Estimated
Wed 11:46:00 PM 43.2173 125.0649 66° East  Level Estimated
Wed 11:47:00 PM 43.2417 125.1423 67° East  Level Estimated
Wed 11:48:00 PM 43.2661 125.2197 67° East  Level Estimated
Wed 11:49:00 PM 43.2905 125.2972 67° East  Level Estimated
Wed 11:50:00 PM 43.3148 125.3747 67° East  Level Estimated
Wed 11:51:00 PM 43.3390 125.4524 67° East  Level Estimated
Wed 11:52:00 PM 43.3632 125.5301 67° East  Level Estimated
Wed 11:53:00 PM 43.3873 125.6078 67° East  Level Estimated
Wed 11:54:00 PM 43.4114 125.6856 67° East  Level Estimated
Wed 11:55:00 PM 43.4354 125.7635 67° East  Level Estimated
Wed 11:56:00 PM 43.4594 125.8414 67° East  Level Estimated
Wed 11:57:00 PM 43.4833 125.9194 67° East  Level Estimated
Wed 11:58:00 PM 43.5072 125.9974 67° East  Level Estimated
Wed 11:59:00 PM 43.5310 126.0755 67° East  Level Estimated
Thu 12:00:00 AM 43.5548 126.1537 67° East  Level Estimated
Thu 12:01:00 AM 43.5785 126.2319 67° East  Level Estimated
Thu 12:02:00 AM 43.6021 126.3102 67° East  Level Estimated
Thu 12:03:00 AM 43.6258 126.3886 67° East  Level Estimated
Thu 12:04:00 AM 43.6493 126.4670 67° East  Level Estimated
Thu 12:05:00 AM 43.6728 126.5455 67° East  Level Estimated
Thu 12:06:00 AM 43.6962 126.6240 68° East  Level Estimated
Thu 12:07:00 AM 43.7196 126.7026 68° East  Level Estimated
Thu 12:08:00 AM 43.7430 126.7813 68° East  Level Estimated
Thu 12:09:00 AM 43.7663 126.8600 68° East  Level Estimated
Thu 12:10:00 AM 43.7895 126.9388 68° East  Level Estimated
Thu 12:11:00 AM 43.8126 127.0177 68° East  Level Estimated
Thu 12:12:00 AM 43.8358 127.0966 68° East  Level Estimated
Thu 12:13:00 AM 43.8588 127.1755 68° East  Level Estimated
Thu 12:14:00 AM 43.8818 127.2546 68° East  Level Estimated
Thu 12:15:00 AM 43.9048 127.3337 68° East  Level Estimated
Thu 12:16:00 AM 43.9277 127.4128 68° East  Level Estimated
Thu 12:17:00 AM 43.9506 127.4920 68° East  Level Estimated
Thu 12:18:00 AM 43.9733 127.5713 68° East  Level Estimated
Thu 12:19:00 AM 43.9961 127.6506 68° East  Level Estimated
Thu 12:20:00 AM 44.0188 127.7300 68° East  Level Estimated
Thu 12:21:00 AM 44.0414 127.8095 68° East  Level Estimated
Thu 12:22:00 AM 44.0640 127.8890 68° East  Level Estimated
Thu 12:23:00 AM 44.0865 127.9686 68° East  Level Estimated
Thu 12:24:00 AM 44.1089 128.0482 69° East  Level Estimated
Thu 12:25:00 AM 44.1314 128.1279 69° East  Level Estimated
Thu 12:26:00 AM 44.1537 128.2077 69° East  Level Estimated
Thu 12:27:00 AM 44.1760 128.2875 69° East  Level Estimated
Thu 12:28:00 AM 44.1982 128.3674 69° East  Level Estimated
Thu 12:29:00 AM 44.2204 128.4473 69° East  Level Estimated
Thu 12:30:00 AM 44.2425 128.5273 69° East  Level Estimated
Thu 12:31:00 AM 44.2646 128.6074 69° East  Level Estimated
Thu 12:32:00 AM 44.2866 128.6875 69° East  Level Estimated
Thu 12:33:00 AM 44.3086 128.7677 69° East  Level Estimated
Thu 12:34:00 AM 44.3305 128.8479 69° East  Level Estimated
Thu 12:35:00 AM 44.3523 128.9282 69° East  Level Estimated
Thu 12:36:00 AM 44.3741 129.0086 69° East  Level Estimated
Thu 12:37:00 AM 44.3959 129.0890 69° East  Level Estimated
Thu 12:38:00 AM 44.4175 129.1695 69° East  Level Estimated
Thu 12:39:00 AM 44.4392 129.2500 69° East  Level Estimated
Thu 12:40:00 AM 44.4607 129.3306 69° East  Level Estimated
Thu 12:41:00 AM 44.4822 129.4113 69° East  Level Estimated
Thu 12:42:00 AM 44.5037 129.4920 70° East  Level Estimated
Thu 12:43:00 AM 44.5241 129.5690 70° East  Level Estimated
Thu 12:44:00 AM 44.5241 129.5690 35° Northeast  Level Estimated
Thu 12:45:00 AM 44.5241 129.5690 35° Northeast  Level Estimated
Thu 12:46:00 AM 44.5241 129.5690 35° Northeast  Level Estimated
Thu 12:47:00 AM 44.5241 129.5690 35° Northeast  Level Estimated
Thu 12:48:00 AM 44.5241 129.5690 35° Northeast  Level Estimated
Thu 12:49:00 AM 44.5241 129.5690 35° Northeast  Level Estimated
Thu 12:50:00 AM 44.5241 129.5690 35° Northeast  Level Estimated
Thu 12:51:00 AM 44.5241 129.5690 35° Northeast  Level Estimated
Thu 12:52:00 AM 44.5241 129.5690 35° Northeast  Level Estimated
Thu 12:53:00 AM 44.5241 129.5690 35° Northeast  Level Estimated
Thu 12:54:00 AM 44.5241 129.5690 35° Northeast  Level Estimated
Thu 12:55:00 AM 44.5241 129.5690 35° Northeast  Level Estimated
Thu 12:56:00 AM 44.5241 129.5690 35° Northeast  Level Estimated
Thu 12:57:00 AM 44.5241 129.5690 35° Northeast  Level Estimated
Thu 12:58:00 AM 44.5241 129.5690 35° Northeast  Level Estimated
Thu 12:59:00 AM 44.5241 129.5690 35° Northeast  Level Estimated

Login

Don't have an account? Register now (free) for customized features, flight alerts, and more!